createdAt,value
2017-03-28T00:00:46.069Z,70.50
2017-03-28T00:01:41.057Z,71.19
2017-03-28T00:02:41.145Z,72.12
2017-03-28T00:03:36.250Z,72.37
2017-03-28T00:04:31.194Z,72.51
2017-03-28T00:05:31.241Z,72.90
2017-03-28T00:06:26.236Z,73.25
2017-03-28T00:07:21.511Z,74.48
2017-03-28T00:08:21.548Z,75.42
2017-03-28T00:09:16.310Z,75.89
2017-03-28T00:10:11.377Z,75.94
2017-03-28T00:11:12.449Z,74.76
2017-03-28T00:12:12.424Z,73.62
2017-03-28T00:13:12.447Z,73.58
2017-03-28T00:14:12.496Z,73.78
2017-03-28T00:15:13.507Z,73.15
2017-03-28T00:16:14.514Z,72.67
2017-03-28T00:17:08.528Z,72.11
2017-03-28T00:18:02.612Z,71.21
2017-03-28T00:18:51.681Z,70.39
2017-03-28T00:19:40.715Z,70.00
2017-03-28T00:20:29.716Z,69.53
2017-03-28T00:21:30.756Z,69.31
2017-03-28T00:22:30.751Z,69.30
2017-03-28T00:23:25.797Z,69.50
2017-03-28T00:24:25.758Z,69.59
2017-03-28T00:25:19.966Z,69.74
2017-03-28T00:26:14.902Z,69.83
2017-03-28T00:27:03.898Z,70.49
2017-03-28T00:27:57.965Z,71.22
2017-03-28T00:28:51.986Z,71.36
2017-03-28T00:29:45.956Z,71.88
2017-03-28T00:30:35.007Z,72.43
2017-03-28T00:31:29.024Z,73.13
2017-03-28T00:32:29.069Z,74.14
2017-03-28T00:33:17.136Z,75.20
2017-03-28T00:34:12.216Z,76.19
2017-03-28T00:35:01.166Z,76.28
2017-03-28T00:35:55.336Z,75.77
2017-03-28T00:36:49.273Z,75.18
2017-03-28T00:37:38.310Z,74.55
2017-03-28T00:38:27.424Z,74.05
2017-03-28T00:39:21.416Z,73.75
2017-03-28T00:40:16.401Z,73.91
2017-03-28T00:41:11.444Z,73.63
2017-03-28T00:42:11.509Z,73.13
2017-03-28T00:43:06.485Z,72.83
2017-03-28T00:44:01.496Z,72.67
2017-03-28T00:45:01.483Z,72.52
2017-03-28T00:45:56.576Z,72.42
2017-03-28T00:46:56.599Z,72.49
2017-03-28T00:47:56.660Z,72.74
2017-03-28T00:48:56.727Z,73.08
2017-03-28T00:49:50.703Z,73.66
2017-03-28T00:50:50.678Z,74.44
2017-03-28T00:51:45.703Z,75.00
2017-03-28T00:52:41.174Z,75.73
2017-03-28T00:53:41.808Z,76.63
2017-03-28T00:54:41.828Z,76.89
2017-03-28T00:55:41.865Z,76.74
2017-03-28T00:56:36.899Z,76.49
2017-03-28T00:57:31.350Z,76.25
2017-03-28T00:58:30.899Z,75.80
2017-03-28T00:59:25.941Z,75.64
2017-03-28T01:00:32.010Z,75.69
2017-03-28T01:01:26.987Z,75.15
2017-03-28T01:02:21.000Z,74.73
2017-03-28T01:03:22.136Z,74.11
2017-03-28T01:04:17.125Z,73.93
2017-03-28T01:05:11.199Z,73.91
2017-03-28T01:06:12.195Z,73.88
2017-03-28T01:07:12.397Z,74.30
2017-03-28T01:08:12.206Z,74.38
2017-03-28T01:09:12.304Z,74.28
2017-03-28T01:10:13.473Z,74.35
2017-03-28T01:11:14.292Z,74.51
2017-03-28T01:12:08.303Z,74.71
2017-03-28T01:13:08.364Z,75.01
2017-03-28T01:14:03.408Z,75.23
2017-03-28T01:14:58.427Z,75.20
2017-03-28T01:15:58.438Z,75.42
2017-03-28T01:16:53.501Z,75.33
2017-03-28T01:17:48.642Z,75.20
2017-03-28T01:18:48.545Z,75.20
2017-03-28T01:19:43.616Z,75.21
2017-03-28T01:20:38.566Z,75.09
2017-03-28T01:21:39.628Z,75.06
2017-03-28T01:22:39.617Z,75.15
2017-03-28T01:23:39.682Z,74.99
2017-03-28T01:24:34.818Z,74.83
2017-03-28T01:25:34.690Z,74.82
2017-03-28T01:26:34.773Z,74.73
2017-03-28T01:27:28.848Z,74.75
2017-03-28T01:28:28.789Z,74.90
2017-03-28T01:29:23.860Z,75.37
2017-03-28T01:30:23.854Z,75.78
2017-03-28T01:31:17.889Z,75.97
2017-03-28T01:32:17.887Z,76.22
2017-03-28T01:33:12.930Z,76.33
2017-03-28T01:34:07.936Z,76.31
2017-03-28T01:35:08.982Z,76.16
2017-03-28T01:36:09.040Z,76.04
2017-03-28T01:37:03.993Z,75.99
2017-03-28T01:38:04.141Z,75.84
2017-03-28T01:39:04.101Z,75.79
2017-03-28T01:40:10.064Z,75.81
2017-03-28T01:41:05.099Z,75.83
2017-03-28T01:42:05.167Z,75.80
2017-03-28T01:43:00.191Z,75.71
2017-03-28T01:43:55.258Z,75.63
2017-03-28T01:44:56.429Z,75.45
2017-03-28T01:45:56.261Z,75.06
2017-03-28T01:46:56.280Z,74.72
2017-03-28T01:47:56.409Z,74.64
2017-03-28T01:48:57.434Z,74.29
2017-03-28T01:49:58.400Z,74.02
2017-03-28T01:50:52.444Z,73.98
2017-03-28T01:51:52.482Z,73.84
2017-03-28T01:52:47.486Z,73.49
2017-03-28T01:53:42.535Z,73.29
2017-03-28T01:54:42.606Z,73.29
2017-03-28T01:55:37.564Z,74.21
2017-03-28T01:56:32.581Z,75.76
2017-03-28T01:57:32.599Z,75.83
2017-03-28T01:58:27.664Z,75.41
2017-03-28T01:59:22.690Z,75.24
2017-03-28T02:00:23.792Z,74.85
2017-03-28T02:01:23.852Z,74.47
2017-03-28T02:02:23.779Z,74.40
2017-03-28T02:03:18.791Z,74.84
2017-03-28T02:04:18.800Z,74.98
2017-03-28T02:05:18.881Z,74.56
2017-03-28T02:06:12.892Z,74.38
2017-03-28T02:07:13.895Z,74.23
2017-03-28T02:08:13.930Z,74.20
2017-03-28T02:09:13.942Z,74.35
2017-03-28T02:10:14.066Z,74.80
2017-03-28T02:11:19.998Z,75.10
2017-03-28T02:12:15.101Z,75.36
2017-03-28T02:13:15.042Z,75.42
2017-03-28T02:14:09.117Z,75.43
2017-03-28T02:15:09.113Z,75.27
2017-03-28T02:16:04.129Z,75.19
2017-03-28T02:17:04.163Z,75.07
2017-03-28T02:18:04.246Z,75.09
2017-03-28T02:19:04.284Z,75.27
2017-03-28T02:19:58.261Z,75.11
2017-03-28T02:20:58.297Z,74.64
2017-03-28T02:21:53.330Z,74.27
2017-03-28T02:22:48.303Z,74.07
2017-03-28T02:23:48.419Z,74.05
2017-03-28T02:24:43.437Z,74.27
2017-03-28T02:25:38.408Z,74.47
2017-03-28T02:26:38.450Z,74.68
2017-03-28T02:27:33.466Z,74.91
2017-03-28T02:28:33.444Z,75.65
2017-03-28T02:29:33.534Z,76.28
2017-03-28T02:30:33.896Z,76.93
2017-03-28T02:31:27.596Z,77.41
2017-03-28T02:32:27.584Z,77.64
2017-03-28T02:33:22.630Z,77.73
2017-03-28T02:34:22.727Z,77.72
2017-03-28T02:35:22.697Z,77.87
2017-03-28T02:36:22.692Z,77.98
2017-03-28T02:37:16.762Z,77.94
2017-03-28T02:38:17.777Z,77.48
2017-03-28T02:39:17.769Z,77.24
2017-03-28T02:40:12.801Z,77.14
2017-03-28T02:41:12.863Z,77.09
2017-03-28T02:42:07.010Z,76.97
2017-03-28T02:43:06.902Z,76.69
2017-03-28T02:44:01.903Z,76.59
2017-03-28T02:44:56.978Z,76.47
2017-03-28T02:45:56.977Z,76.39
2017-03-28T02:46:52.010Z,76.28
2017-03-28T02:47:47.085Z,76.11
2017-03-28T02:48:47.115Z,75.84
2017-03-28T02:49:42.138Z,75.41
2017-03-28T02:50:42.203Z,74.97
2017-03-28T02:51:42.144Z,74.44
2017-03-28T02:52:42.257Z,73.89
2017-03-28T02:53:36.222Z,73.63
2017-03-28T02:54:36.218Z,73.45
2017-03-28T02:55:31.286Z,73.50
2017-03-28T02:56:31.294Z,73.49
2017-03-28T02:57:31.281Z,73.59
2017-03-28T02:58:31.364Z,73.50
2017-03-28T02:59:25.393Z,73.34
2017-03-28T03:00:25.392Z,73.21
2017-03-28T03:01:20.408Z,73.12
2017-03-28T03:02:15.487Z,73.29
2017-03-28T03:03:16.490Z,73.28
2017-03-28T03:04:16.530Z,73.18
2017-03-28T03:05:16.539Z,73.06
2017-03-28T03:06:11.540Z,73.04
2017-03-28T03:07:05.607Z,73.15
2017-03-28T03:08:05.611Z,72.94
2017-03-28T03:09:00.649Z,72.89
2017-03-28T03:10:00.828Z,72.88
2017-03-28T03:10:54.702Z,72.85
2017-03-28T03:11:54.717Z,72.71
2017-03-28T03:12:49.807Z,72.58
2017-03-28T03:13:44.870Z,72.48
2017-03-28T03:14:44.792Z,72.48
2017-03-28T03:15:39.901Z,72.53
2017-03-28T03:16:34.870Z,72.61
2017-03-28T03:17:35.912Z,72.66
2017-03-28T03:18:35.909Z,72.51
2017-03-28T03:19:35.975Z,72.43
2017-03-28T03:20:30.977Z,72.33
2017-03-28T03:21:25.012Z,72.33
2017-03-28T03:22:26.049Z,72.30
2017-03-28T03:23:26.306Z,72.35
2017-03-28T03:24:26.097Z,72.27
2017-03-28T03:25:21.092Z,72.20
2017-03-28T03:26:15.133Z,72.30
2017-03-28T03:27:15.195Z,72.30
2017-03-28T03:28:10.171Z,72.28
2017-03-28T03:29:10.260Z,72.23
2017-03-28T03:30:10.247Z,72.08
2017-03-28T03:31:10.275Z,72.01
2017-03-28T03:32:10.294Z,71.98
2017-03-28T03:33:10.387Z,71.84
2017-03-28T03:34:04.385Z,71.72
2017-03-28T03:35:04.415Z,71.63
2017-03-28T03:35:59.373Z,71.63
2017-03-28T03:36:54.467Z,71.72
2017-03-28T03:37:55.535Z,71.84
2017-03-28T03:38:55.497Z,71.72
2017-03-28T03:39:55.490Z,71.55
2017-03-28T03:40:50.551Z,71.20
2017-03-28T03:41:44.575Z,70.79
2017-03-28T03:42:44.610Z,70.08
2017-03-28T03:43:39.674Z,69.51
2017-03-28T03:44:39.693Z,69.13
2017-03-28T03:45:33.686Z,68.94
2017-03-28T03:46:33.742Z,68.76
2017-03-28T03:47:28.745Z,68.80
2017-03-28T03:48:23.794Z,68.87
2017-03-28T03:49:23.778Z,69.01
2017-03-28T03:50:18.884Z,69.11
2017-03-28T03:51:14.074Z,69.29
2017-03-28T03:52:14.845Z,69.32
2017-03-28T03:53:14.837Z,68.97
2017-03-28T03:54:14.889Z,68.68
2017-03-28T03:55:09.999Z,68.50
2017-03-28T03:56:04.106Z,68.49
2017-03-28T03:57:04.050Z,68.57
2017-03-28T03:57:59.126Z,68.72
2017-03-28T03:58:59.114Z,68.78
2017-03-28T03:59:53.131Z,68.78
2017-03-28T04:00:54.161Z,68.85
2017-03-28T04:01:55.209Z,68.90
2017-03-28T04:02:50.210Z,68.93
2017-03-28T04:03:44.231Z,69.04
2017-03-28T04:04:45.260Z,69.47
2017-03-28T04:05:45.304Z,70.09
2017-03-28T04:06:45.300Z,70.42
2017-03-28T04:07:40.375Z,70.77
2017-03-28T04:08:34.375Z,71.10
2017-03-28T04:09:34.389Z,71.22
2017-03-28T04:10:29.440Z,71.12
2017-03-28T04:11:35.472Z,70.55
2017-03-28T04:12:30.467Z,70.43
2017-03-28T04:13:24.518Z,70.30
2017-03-28T04:14:25.540Z,70.79
2017-03-28T04:15:20.593Z,71.14
2017-03-28T04:16:14.610Z,71.61
2017-03-28T04:17:14.616Z,71.89
2017-03-28T04:18:09.671Z,71.94
2017-03-28T04:19:09.706Z,71.72
2017-03-28T04:20:04.203Z,71.43
2017-03-28T04:21:04.172Z,71.13
2017-03-28T04:21:58.741Z,71.04
2017-03-28T04:22:53.799Z,71.05
2017-03-28T04:23:53.802Z,71.24
2017-03-28T04:24:48.817Z,71.35
2017-03-28T04:25:44.184Z,71.52
2017-03-28T04:26:43.844Z,71.92
2017-03-28T04:27:38.934Z,72.36
2017-03-28T04:28:34.013Z,72.66
2017-03-28T04:29:34.991Z,72.77
2017-03-28T04:30:34.980Z,72.98
2017-03-28T04:31:35.058Z,73.05
2017-03-28T04:32:30.483Z,73.22
2017-03-28T04:33:24.099Z,73.52
2017-03-28T04:34:25.132Z,73.83
2017-03-28T04:35:25.164Z,73.78
2017-03-28T04:36:25.388Z,73.61
2017-03-28T04:37:25.195Z,73.53
2017-03-28T04:38:31.194Z,73.73
2017-03-28T04:39:26.301Z,73.91
2017-03-28T04:40:26.369Z,74.08
2017-03-28T04:41:20.345Z,74.23
2017-03-28T04:42:20.644Z,74.40
2017-03-28T04:43:15.764Z,74.44
2017-03-28T04:44:15.411Z,74.50
2017-03-28T04:45:15.381Z,74.62
2017-03-28T04:46:15.493Z,74.99
2017-03-28T04:47:09.534Z,75.28
2017-03-28T04:48:09.598Z,75.53
2017-03-28T04:49:04.540Z,75.71
2017-03-28T04:49:59.585Z,75.65
2017-03-28T04:50:53.934Z,75.61
2017-03-28T04:51:53.580Z,75.46
2017-03-28T04:52:48.642Z,75.07
2017-03-28T04:53:43.935Z,74.80
2017-03-28T04:54:43.709Z,74.63
2017-03-28T04:55:38.753Z,74.46
2017-03-28T04:56:33.814Z,74.25
2017-03-28T04:57:33.754Z,74.05
2017-03-28T04:58:28.863Z,74.02
2017-03-28T04:59:28.859Z,74.06
2017-03-28T05:00:29.872Z,74.16
2017-03-28T05:01:30.892Z,74.18
2017-03-28T05:02:25.268Z,74.17
2017-03-28T05:03:25.311Z,74.21
2017-03-28T05:04:20.002Z,74.37
2017-03-28T05:05:15.100Z,74.81
2017-03-28T05:06:09.052Z,75.42
2017-03-28T05:07:09.081Z,75.95
2017-03-28T05:08:04.161Z,76.35
2017-03-28T05:08:59.113Z,76.48
2017-03-28T05:09:59.107Z,76.61
2017-03-28T05:10:59.213Z,76.46
2017-03-28T05:11:59.200Z,76.28
2017-03-28T05:12:54.261Z,76.40
2017-03-28T05:13:49.290Z,76.46
2017-03-28T05:14:43.310Z,76.58
2017-03-28T05:15:44.367Z,76.80
2017-03-28T05:16:39.432Z,76.89
2017-03-28T05:17:39.368Z,76.87
2017-03-28T05:18:39.430Z,76.85
2017-03-28T05:19:39.417Z,76.81
2017-03-28T05:20:39.442Z,76.74
2017-03-28T05:21:39.483Z,76.73
2017-03-28T05:22:39.494Z,76.61
2017-03-28T05:23:39.502Z,76.51
2017-03-28T05:24:45.534Z,76.34
2017-03-28T05:25:40.592Z,76.01
2017-03-28T05:26:40.638Z,75.67
2017-03-28T05:27:40.688Z,75.47
2017-03-28T05:28:40.677Z,75.27
2017-03-28T05:29:40.773Z,75.13
2017-03-28T05:30:34.699Z,75.03
2017-03-28T05:31:34.719Z,74.88
2017-03-28T05:32:29.890Z,74.73
2017-03-28T05:33:24.803Z,74.63
2017-03-28T05:34:24.879Z,74.59
2017-03-28T05:35:24.905Z,74.60
2017-03-28T05:36:18.912Z,74.62
2017-03-28T05:37:18.919Z,74.77
2017-03-28T05:38:13.962Z,74.85
2017-03-28T05:39:13.985Z,75.01
2017-03-28T05:40:13.999Z,75.05
2017-03-28T05:41:14.126Z,75.03
2017-03-28T05:42:14.118Z,74.99
2017-03-28T05:43:14.101Z,74.94
2017-03-28T05:44:08.080Z,74.99
2017-03-28T05:45:08.369Z,75.07
2017-03-28T05:46:03.615Z,75.12
2017-03-28T05:47:03.593Z,75.10
2017-03-28T05:48:04.796Z,75.08
2017-03-28T05:49:05.787Z,75.08
2017-03-28T05:50:06.708Z,75.11
2017-03-28T05:51:00.429Z,75.12
2017-03-28T05:52:00.363Z,75.21
2017-03-28T05:52:55.355Z,75.37
2017-03-28T05:53:50.375Z,75.39
2017-03-28T05:54:44.465Z,75.29
2017-03-28T05:55:44.466Z,75.20
2017-03-28T05:56:39.882Z,75.22
2017-03-28T05:57:34.652Z,74.98
2017-03-28T05:58:34.528Z,74.02
2017-03-28T05:59:29.579Z,72.28
2017-03-28T06:00:24.658Z,70.94
2017-03-28T06:01:18.903Z,69.19
2017-03-28T06:02:20.353Z,66.87
2017-03-28T06:03:14.679Z,65.12
2017-03-28T06:04:14.692Z,63.64
2017-03-28T06:05:14.763Z,66.60
2017-03-28T06:06:14.784Z,66.92
2017-03-28T06:07:14.782Z,62.52
2017-03-28T06:08:15.357Z,61.61
2017-03-28T06:09:20.868Z,58.61
2017-03-28T06:10:15.826Z,57.57
2017-03-28T06:11:15.992Z,57.06
2017-03-28T06:12:15.921Z,56.09
2017-03-28T06:13:10.403Z,56.26
2017-03-28T06:14:10.696Z,55.23
2017-03-28T06:15:05.156Z,54.28
2017-03-28T06:16:00.146Z,52.96
2017-03-28T06:16:54.100Z,52.31
2017-03-28T06:17:54.154Z,51.82
2017-03-28T06:18:49.201Z,51.21
2017-03-28T06:19:49.582Z,54.25
2017-03-28T06:20:49.286Z,50.83
2017-03-28T06:21:49.300Z,50.43
2017-03-28T06:22:43.687Z,50.80
2017-03-28T06:23:44.583Z,52.73
2017-03-28T06:24:45.355Z,51.09
2017-03-28T06:25:45.611Z,52.02
2017-03-28T06:26:40.459Z,51.27
2017-03-28T06:27:35.488Z,50.88
2017-03-28T06:28:35.486Z,49.31
2017-03-28T06:29:30.603Z,49.21
2017-03-28T06:30:25.657Z,49.53
2017-03-28T06:31:19.823Z,51.91
2017-03-28T06:32:19.659Z,50.98
2017-03-28T06:33:15.113Z,50.10
2017-03-28T06:34:15.055Z,47.85
2017-03-28T06:35:14.950Z,46.71
2017-03-28T06:36:15.123Z,48.12
2017-03-28T06:37:08.877Z,48.62
2017-03-28T06:38:08.929Z,46.61
2017-03-28T06:39:03.967Z,45.49
2017-03-28T06:39:58.945Z,45.44
2017-03-28T06:40:53.009Z,45.46
2017-03-28T06:41:53.006Z,46.67
2017-03-28T06:42:48.734Z,46.92
2017-03-28T06:43:42.120Z,49.16
2017-03-28T06:44:42.183Z,47.32
2017-03-28T06:45:36.212Z,45.49
2017-03-28T06:46:30.294Z,43.78
2017-03-28T06:47:19.841Z,43.08
2017-03-28T06:48:13.298Z,42.50
2017-03-28T06:49:08.381Z,41.71
2017-03-28T06:50:03.381Z,41.77
2017-03-28T06:50:57.482Z,41.43
2017-03-28T06:51:51.791Z,43.39
2017-03-28T06:52:46.517Z,41.97
2017-03-28T06:53:40.832Z,41.85
2017-03-28T06:54:34.597Z,42.18
2017-03-28T06:55:28.678Z,40.24
2017-03-28T06:56:22.963Z,40.06
2017-03-28T06:57:16.775Z,39.66
2017-03-28T06:58:16.926Z,39.67
2017-03-28T06:59:10.816Z,40.08
2017-03-28T07:00:10.989Z,40.60
2017-03-28T07:01:04.897Z,42.05
2017-03-28T07:01:54.338Z,42.11
2017-03-28T07:02:54.437Z,40.18
2017-03-28T07:03:42.217Z,42.91
2017-03-28T07:04:37.117Z,39.39
2017-03-28T07:05:43.091Z,40.56
2017-03-28T07:06:38.132Z,41.34
2017-03-28T07:07:27.190Z,39.40
2017-03-28T07:08:21.259Z,38.47
2017-03-28T07:09:15.246Z,44.00
2017-03-28T07:10:09.381Z,42.79
2017-03-28T07:11:09.376Z,39.97
2017-03-28T07:12:04.428Z,46.76
2017-03-28T07:13:04.478Z,44.33
2017-03-28T07:14:04.503Z,39.77
2017-03-28T07:14:59.555Z,37.51
2017-03-28T07:15:59.539Z,37.19
2017-03-28T07:16:54.602Z,37.33
2017-03-28T07:17:43.724Z,38.33
2017-03-28T07:18:32.695Z,38.50
2017-03-28T07:19:20.789Z,37.90
2017-03-28T07:20:14.779Z,39.64
2017-03-28T07:21:08.871Z,37.44
2017-03-28T07:22:02.932Z,40.66
2017-03-28T07:22:57.348Z,39.52
2017-03-28T07:23:57.598Z,37.71
2017-03-28T07:24:51.084Z,37.32
2017-03-28T07:25:46.084Z,37.09
2017-03-28T07:26:35.707Z,40.02
2017-03-28T07:27:24.153Z,40.84
2017-03-28T07:28:12.239Z,39.68
2017-03-28T07:29:00.910Z,38.13
2017-03-28T07:29:54.407Z,37.35
2017-03-28T07:30:43.419Z,39.93
2017-03-28T07:31:37.423Z,39.63
2017-03-28T07:32:37.503Z,38.94
2017-03-28T07:33:25.533Z,37.28
2017-03-28T07:34:19.611Z,35.96
2017-03-28T07:35:19.610Z,38.54
2017-03-28T07:36:08.691Z,38.55
2017-03-28T07:37:08.778Z,37.11
2017-03-28T07:38:04.010Z,38.58
2017-03-28T07:38:58.828Z,37.59
2017-03-28T07:39:46.869Z,37.70
2017-03-28T07:40:34.861Z,38.61
2017-03-28T07:41:28.910Z,37.09
2017-03-28T07:42:29.142Z,37.99
2017-03-28T07:43:18.361Z,37.90
2017-03-28T07:44:13.122Z,36.96
2017-03-28T07:45:08.114Z,37.89
2017-03-28T07:46:03.322Z,37.33
2017-03-28T07:46:57.211Z,37.37
2017-03-28T07:47:51.302Z,38.17
2017-03-28T07:48:45.318Z,37.47
2017-03-28T07:49:40.301Z,38.25
2017-03-28T07:50:40.357Z,37.25
2017-03-28T07:51:35.879Z,36.19
2017-03-28T07:52:30.513Z,40.61
2017-03-28T07:53:31.593Z,39.63
2017-03-28T07:54:31.596Z,36.03
2017-03-28T07:55:25.810Z,35.67
2017-03-28T07:56:20.734Z,35.41
2017-03-28T07:57:15.782Z,36.91
2017-03-28T07:58:04.784Z,42.37
2017-03-28T07:58:53.910Z,36.30
2017-03-28T07:59:47.880Z,36.86
2017-03-28T08:00:41.905Z,37.86
2017-03-28T08:01:30.979Z,37.00
2017-03-28T08:02:25.123Z,40.10
2017-03-28T08:03:25.113Z,39.65
2017-03-28T08:04:13.101Z,38.61
2017-03-28T08:05:13.193Z,39.59
2017-03-28T08:06:01.202Z,37.26
2017-03-28T08:06:50.302Z,38.33
2017-03-28T08:07:50.449Z,40.49
2017-03-28T08:08:38.916Z,41.39
2017-03-28T08:09:27.773Z,39.17
2017-03-28T08:10:22.507Z,37.73
2017-03-28T08:11:16.520Z,37.07
2017-03-28T08:12:04.659Z,38.03
2017-03-28T08:13:04.697Z,38.82
2017-03-28T08:13:52.775Z,39.45
2017-03-28T08:14:47.255Z,39.80
2017-03-28T08:15:35.839Z,38.91
2017-03-28T08:16:30.916Z,38.97
2017-03-28T08:17:24.924Z,40.04
2017-03-28T08:18:19.969Z,39.90
2017-03-28T08:19:14.196Z,38.77
2017-03-28T08:20:02.142Z,40.31
2017-03-28T08:21:02.195Z,38.58
2017-03-28T08:21:57.169Z,38.34
2017-03-28T08:22:51.259Z,38.38
2017-03-28T08:23:45.244Z,39.93
2017-03-28T08:24:34.312Z,37.05
2017-03-28T08:25:34.719Z,37.72
2017-03-28T08:26:34.537Z,37.52
2017-03-28T08:27:28.539Z,38.22
2017-03-28T08:28:23.515Z,36.63
2017-03-28T08:29:17.922Z,36.90
2017-03-28T08:30:05.615Z,39.64
2017-03-28T08:30:54.799Z,38.67
2017-03-28T08:31:48.711Z,40.58
2017-03-28T08:32:44.232Z,38.24
2017-03-28T08:33:32.948Z,39.82
2017-03-28T08:34:33.030Z,37.53
2017-03-28T08:35:32.929Z,37.67
2017-03-28T08:36:22.326Z,36.72
2017-03-28T08:37:16.607Z,38.67
2017-03-28T08:38:05.105Z,36.64
2017-03-28T08:39:00.188Z,37.40
2017-03-28T08:39:54.333Z,38.89
2017-03-28T08:40:49.254Z,38.68
2017-03-28T08:41:50.304Z,38.40
2017-03-28T08:42:50.336Z,36.13
2017-03-28T08:43:44.441Z,36.47
2017-03-28T08:44:38.470Z,37.48
2017-03-28T08:45:27.514Z,36.44
2017-03-28T08:46:22.592Z,35.54
2017-03-28T08:47:23.040Z,36.76
2017-03-28T08:48:18.071Z,36.82
2017-03-28T08:49:11.961Z,36.10
2017-03-28T08:50:06.402Z,36.59
2017-03-28T08:51:00.859Z,40.58
2017-03-28T08:51:54.918Z,38.34
2017-03-28T08:52:54.995Z,36.82
2017-03-28T08:53:50.322Z,36.91
2017-03-28T08:54:45.099Z,35.31
2017-03-28T08:55:34.099Z,34.41
2017-03-28T08:56:28.175Z,34.89
2017-03-28T08:57:23.178Z,36.55
2017-03-28T08:58:18.512Z,37.45
2017-03-28T08:59:18.628Z,37.27
2017-03-28T09:00:07.514Z,35.99
2017-03-28T09:00:56.422Z,36.95
2017-03-28T09:01:50.841Z,36.70
2017-03-28T09:02:45.532Z,34.55
2017-03-28T09:03:40.176Z,34.31
2017-03-28T09:04:34.673Z,34.19
2017-03-28T09:05:28.788Z,36.69
2017-03-28T09:06:16.756Z,34.63
2017-03-28T09:07:05.820Z,33.04
2017-03-28T09:08:00.907Z,35.07
2017-03-28T09:08:56.164Z,37.08
2017-03-28T09:09:44.048Z,33.99
2017-03-28T09:10:38.099Z,35.80
2017-03-28T09:11:32.175Z,37.98
2017-03-28T09:12:21.543Z,34.92
2017-03-28T09:13:09.303Z,34.80
2017-03-28T09:13:58.345Z,35.81
2017-03-28T09:14:58.378Z,35.54
2017-03-28T09:15:58.375Z,35.00
2017-03-28T09:16:52.916Z,34.73
2017-03-28T09:17:46.505Z,33.83
2017-03-28T09:18:34.589Z,36.80
2017-03-28T09:19:28.906Z,33.52
2017-03-28T09:20:24.086Z,34.88
2017-03-28T09:21:24.099Z,34.84
2017-03-28T09:22:17.773Z,34.12
2017-03-28T09:23:11.877Z,36.30
2017-03-28T09:24:05.913Z,35.45
2017-03-28T09:25:00.941Z,36.59
2017-03-28T09:25:56.466Z,35.32
2017-03-28T09:26:50.073Z,34.10
2017-03-28T09:27:44.080Z,34.90
2017-03-28T09:28:38.194Z,34.06
2017-03-28T09:29:26.639Z,35.59
2017-03-28T09:30:21.319Z,35.16
2017-03-28T09:31:10.365Z,36.01
2017-03-28T09:32:10.400Z,36.91
2017-03-28T09:33:04.489Z,33.28
2017-03-28T09:33:58.764Z,34.58
2017-03-28T09:34:46.594Z,34.46
2017-03-28T09:35:40.698Z,37.40
2017-03-28T09:36:29.688Z,35.13
2017-03-28T09:37:18.770Z,37.22
2017-03-28T09:38:18.839Z,35.73
2017-03-28T09:39:12.858Z,34.99
2017-03-28T09:40:08.201Z,34.92
2017-03-28T09:41:08.005Z,35.76
2017-03-28T09:42:03.069Z,35.59
2017-03-28T09:43:03.148Z,34.52
2017-03-28T09:43:58.687Z,33.34
2017-03-28T09:44:46.220Z,36.17
2017-03-28T09:45:35.429Z,34.60
2017-03-28T09:46:30.073Z,34.29
2017-03-28T09:47:23.382Z,34.04
2017-03-28T09:48:23.485Z,34.24
2017-03-28T09:49:18.499Z,34.16
2017-03-28T09:50:12.593Z,37.98
2017-03-28T09:51:01.770Z,36.15
2017-03-28T09:51:51.080Z,35.81
2017-03-28T09:52:44.768Z,35.12
2017-03-28T09:53:38.807Z,37.45
2017-03-28T09:54:27.877Z,36.61
2017-03-28T09:55:29.197Z,37.24
2017-03-28T09:56:17.945Z,34.85
2017-03-28T09:57:06.367Z,37.09
2017-03-28T09:58:06.039Z,33.82
2017-03-28T09:59:00.523Z,35.28
2017-03-28T09:59:49.184Z,36.94
2017-03-28T10:00:44.219Z,35.71
2017-03-28T10:01:33.404Z,35.14
2017-03-28T10:02:27.384Z,36.83
2017-03-28T10:03:21.371Z,35.27
2017-03-28T10:04:09.531Z,37.51
2017-03-28T10:05:09.498Z,35.80
2017-03-28T10:06:03.943Z,34.25
2017-03-28T10:06:57.680Z,35.65
2017-03-28T10:07:46.860Z,37.56
2017-03-28T10:08:40.774Z,34.81
2017-03-28T10:09:35.888Z,36.98
2017-03-28T10:10:29.885Z,36.47
2017-03-28T10:11:17.958Z,37.62
2017-03-28T10:12:18.154Z,35.88
2017-03-28T10:13:12.102Z,32.34
2017-03-28T10:14:06.500Z,31.99
2017-03-28T10:14:54.219Z,33.87
2017-03-28T10:15:49.305Z,33.71
2017-03-28T10:16:43.376Z,34.93
2017-03-28T10:17:37.397Z,32.23
2017-03-28T10:18:31.519Z,35.41
2017-03-28T10:19:19.861Z,35.85
2017-03-28T10:20:08.661Z,34.01
2017-03-28T10:20:57.776Z,35.12
2017-03-28T10:21:52.795Z,32.82
2017-03-28T10:22:46.882Z,33.40
2017-03-28T10:23:42.265Z,31.69
2017-03-28T10:24:31.409Z,31.49
2017-03-28T10:25:26.128Z,32.47
2017-03-28T10:26:15.243Z,34.93
2017-03-28T10:27:09.235Z,31.74
2017-03-28T10:28:04.365Z,32.63
2017-03-28T10:28:58.498Z,32.74
2017-03-28T10:29:52.493Z,32.36
2017-03-28T10:30:41.518Z,35.39
2017-03-28T10:31:35.713Z,34.78
2017-03-28T10:32:24.846Z,34.42
2017-03-28T10:33:18.802Z,34.05
2017-03-28T10:34:13.381Z,35.80
2017-03-28T10:35:06.893Z,35.64
2017-03-28T10:35:55.929Z,31.13
2017-03-28T10:36:50.006Z,31.96
2017-03-28T10:37:50.066Z,31.29
2017-03-28T10:38:45.116Z,31.23
2017-03-28T10:39:39.599Z,34.35
2017-03-28T10:40:28.313Z,33.14
2017-03-28T10:41:23.378Z,33.32
2017-03-28T10:42:17.603Z,33.15
2017-03-28T10:43:06.548Z,33.77
2017-03-28T10:43:54.643Z,33.41
2017-03-28T10:44:44.197Z,34.45
2017-03-28T10:45:38.677Z,34.03
2017-03-28T10:46:32.767Z,33.39
2017-03-28T10:47:22.173Z,34.62
2017-03-28T10:48:15.811Z,33.69
2017-03-28T10:49:03.915Z,33.81
2017-03-28T10:49:58.985Z,33.66
2017-03-28T10:50:48.012Z,35.99
2017-03-28T10:51:48.095Z,35.27
2017-03-28T10:52:42.463Z,32.96
2017-03-28T10:53:36.219Z,36.27
2017-03-28T10:54:30.322Z,36.18
2017-03-28T10:55:24.382Z,34.11
2017-03-28T10:56:13.408Z,33.29
2017-03-28T10:57:01.488Z,34.76
2017-03-28T10:57:55.738Z,32.18
2017-03-28T10:58:44.730Z,31.66
2017-03-28T10:59:44.704Z,34.29
2017-03-28T11:00:39.078Z,34.92
2017-03-28T11:01:32.954Z,32.74
2017-03-28T11:02:21.890Z,33.76
2017-03-28T11:03:15.945Z,31.81
2017-03-28T11:04:10.020Z,34.01
2017-03-28T11:05:04.136Z,33.17
2017-03-28T11:05:59.273Z,32.95
2017-03-28T11:06:47.695Z,32.70
2017-03-28T11:07:41.369Z,33.23
2017-03-28T11:08:29.439Z,34.06
2017-03-28T11:09:24.431Z,34.51
2017-03-28T11:10:18.873Z,35.42
2017-03-28T11:11:07.734Z,33.40
2017-03-28T11:12:07.694Z,34.46
2017-03-28T11:13:07.849Z,31.88
2017-03-28T11:13:56.911Z,32.50
2017-03-28T11:14:46.011Z,33.47
2017-03-28T11:15:40.975Z,35.28
2017-03-28T11:16:42.130Z,33.33
2017-03-28T11:17:36.119Z,34.47
2017-03-28T11:18:24.157Z,30.47
2017-03-28T11:19:24.345Z,33.32
2017-03-28T11:20:18.375Z,29.65
2017-03-28T11:21:12.470Z,30.47
2017-03-28T11:22:06.529Z,32.41
2017-03-28T11:22:55.518Z,32.69
2017-03-28T11:23:43.678Z,31.74
2017-03-28T11:24:38.683Z,31.10
2017-03-28T11:25:27.876Z,34.25
2017-03-28T11:26:16.794Z,34.75
2017-03-28T11:27:06.153Z,34.11
2017-03-28T11:27:59.903Z,33.05
2017-03-28T11:28:59.930Z,35.21
2017-03-28T11:29:54.444Z,36.54
2017-03-28T11:30:48.474Z,33.55
2017-03-28T11:31:48.214Z,33.36
2017-03-28T11:32:42.247Z,32.01
2017-03-28T11:33:36.300Z,33.95
2017-03-28T11:34:30.665Z,33.10
2017-03-28T11:35:24.790Z,33.92
2017-03-28T11:36:13.647Z,33.46
2017-03-28T11:37:01.718Z,32.78
2017-03-28T11:37:50.660Z,34.23
2017-03-28T11:38:45.694Z,34.01
2017-03-28T11:39:41.254Z,34.36
2017-03-28T11:40:42.186Z,33.67
2017-03-28T11:41:41.951Z,34.94
2017-03-28T11:42:35.967Z,34.60
2017-03-28T11:43:24.108Z,35.51
2017-03-28T11:44:13.200Z,32.54
2017-03-28T11:45:01.314Z,30.79
2017-03-28T11:45:50.239Z,33.16
2017-03-28T11:46:39.396Z,35.02
2017-03-28T11:47:39.404Z,32.08
2017-03-28T11:48:33.559Z,32.24
2017-03-28T11:49:29.264Z,31.35
2017-03-28T11:50:17.635Z,33.49
2017-03-28T11:51:11.675Z,32.00
2017-03-28T11:52:00.783Z,33.26
2017-03-28T11:52:49.829Z,34.21
2017-03-28T11:53:43.926Z,31.16
2017-03-28T11:54:38.956Z,33.14
2017-03-28T11:55:34.100Z,34.41
2017-03-28T11:56:29.451Z,32.84
2017-03-28T11:57:23.129Z,34.21
2017-03-28T11:58:18.237Z,32.40